createdAt,value
2023-01-22T00:01:04.613Z,18.66
2023-01-22T00:03:32.227Z,18.67
2023-01-22T00:05:59.581Z,18.67
2023-01-22T00:08:26.981Z,18.68
2023-01-22T00:10:55.576Z,18.67
2023-01-22T00:13:25.024Z,18.67
2023-01-22T00:15:53.039Z,18.67
2023-01-22T00:18:20.632Z,18.66
2023-01-22T00:20:52.315Z,18.65
2023-01-22T00:23:20.438Z,18.65
2023-01-22T00:25:47.875Z,18.64
2023-01-22T00:28:18.355Z,18.63
2023-01-22T00:30:46.256Z,18.63
2023-01-22T00:33:13.574Z,18.61
2023-01-22T00:35:40.897Z,18.62
2023-01-22T00:38:08.235Z,18.61
2023-01-22T00:40:35.483Z,18.60
2023-01-22T00:43:02.759Z,18.61
2023-01-22T00:45:30.716Z,18.59
2023-01-22T00:47:58.031Z,18.59
2023-01-22T00:50:25.751Z,18.58
2023-01-22T00:52:53.136Z,18.58
2023-01-22T00:55:20.530Z,18.57
2023-01-22T00:57:49.294Z,18.58
2023-01-22T01:00:20.250Z,18.57
2023-01-22T01:03:07.347Z,18.56
2023-01-22T01:05:34.639Z,18.55
2023-01-22T01:08:01.951Z,18.56
2023-01-22T01:10:29.268Z,18.54
2023-01-22T01:12:56.521Z,18.54
2023-01-22T01:15:24.329Z,18.55
2023-01-22T01:17:53.931Z,18.54
2023-01-22T01:20:21.279Z,18.53
2023-01-22T01:22:48.571Z,18.53
2023-01-22T01:25:15.855Z,18.53
2023-01-22T01:27:43.234Z,18.53
2023-01-22T01:30:11.192Z,18.52
2023-01-22T01:32:38.479Z,18.52
2023-01-22T01:35:06.098Z,18.52
2023-01-22T01:37:33.341Z,18.51
2023-01-22T01:40:00.538Z,18.51
2023-01-22T01:42:32.564Z,18.51
2023-01-22T01:45:18.606Z,18.51
2023-01-22T01:47:51.385Z,18.51
2023-01-22T01:50:21.129Z,18.50
2023-01-22T01:52:49.204Z,18.50
2023-01-22T01:55:21.930Z,18.50
2023-01-22T01:57:49.300Z,18.50
2023-01-22T02:00:19.019Z,18.50
2023-01-22T02:02:46.905Z,18.50
2023-01-22T02:05:15.152Z,18.50
2023-01-22T02:07:42.575Z,18.49
2023-01-22T02:10:11.369Z,18.49
2023-01-22T02:12:38.707Z,18.49
2023-01-22T02:15:08.056Z,18.49
2023-01-22T02:17:35.380Z,18.48
2023-01-22T02:20:02.833Z,18.48
2023-01-22T02:22:33.375Z,18.47
2023-01-22T02:25:01.664Z,18.47
2023-01-22T02:27:28.982Z,18.46
2023-01-22T02:29:56.298Z,18.47
2023-01-22T02:32:23.599Z,18.47
2023-01-22T02:34:52.702Z,18.46
2023-01-22T02:37:20.059Z,18.45
2023-01-22T02:39:48.325Z,18.47
2023-01-22T02:42:15.695Z,18.46
2023-01-22T02:44:44.232Z,18.45
2023-01-22T02:47:12.795Z,18.45
2023-01-22T02:49:40.103Z,18.45
2023-01-22T02:52:07.469Z,18.45
2023-01-22T02:54:35.560Z,18.44
2023-01-22T02:57:02.832Z,18.46
2023-01-22T02:59:30.056Z,18.45
2023-01-22T03:01:57.446Z,18.46
2023-01-22T03:04:27.366Z,18.45
2023-01-22T03:06:54.683Z,18.45
2023-01-22T03:09:24.090Z,18.45
2023-01-22T03:11:51.488Z,18.45
2023-01-22T03:14:45.453Z,18.44
2023-01-22T03:17:31.439Z,18.44
2023-01-22T03:20:19.071Z,18.44
2023-01-22T03:22:48.033Z,18.44
2023-01-22T03:25:15.492Z,18.44
2023-01-22T03:28:04.055Z,18.45
2023-01-22T03:30:33.717Z,18.44
2023-01-22T03:33:01.034Z,18.44
2023-01-22T03:35:28.581Z,18.46
2023-01-22T03:38:21.815Z,18.45
2023-01-22T03:40:49.141Z,18.44
2023-01-22T03:43:16.455Z,18.45
2023-01-22T03:45:43.907Z,18.44
2023-01-22T03:48:14.732Z,18.45
2023-01-22T03:50:42.179Z,18.44
2023-01-22T03:53:09.591Z,18.45
2023-01-22T03:55:37.037Z,18.44
2023-01-22T03:58:04.565Z,18.44
2023-01-22T04:00:32.002Z,18.43
2023-01-22T04:03:00.108Z,18.42
2023-01-22T04:05:32.797Z,18.42
2023-01-22T04:08:00.039Z,18.41
2023-01-22T04:10:30.372Z,18.42
2023-01-22T04:12:59.532Z,18.42
2023-01-22T04:15:28.038Z,18.43
2023-01-22T04:17:56.662Z,18.44
2023-01-22T04:20:39.896Z,18.44
2023-01-22T04:23:39.192Z,18.45
2023-01-22T04:26:08.663Z,18.45
2023-01-22T04:28:36.160Z,18.44
2023-01-22T04:31:04.792Z,18.46
2023-01-22T04:33:48.727Z,18.45
2023-01-22T04:36:21.035Z,18.44
2023-01-22T04:38:48.377Z,18.45
2023-01-22T04:41:15.724Z,18.45
2023-01-22T04:43:43.915Z,18.44
2023-01-22T04:46:11.425Z,18.43
2023-01-22T04:48:38.836Z,18.42
2023-01-22T04:51:06.227Z,18.40
2023-01-22T04:53:34.065Z,18.39
2023-01-22T04:56:01.350Z,18.40
2023-01-22T04:58:28.813Z,18.40
2023-01-22T05:00:59.233Z,18.40
2023-01-22T05:03:27.447Z,18.40
2023-01-22T05:05:55.073Z,18.39
2023-01-22T05:08:22.450Z,18.38
2023-01-22T05:10:51.481Z,18.39
2023-01-22T05:13:26.920Z,18.39
2023-01-22T05:15:54.289Z,18.38
2023-01-22T05:18:24.147Z,18.39
2023-01-22T05:20:52.657Z,18.38
2023-01-22T05:23:22.322Z,18.38
2023-01-22T05:25:50.860Z,18.37
2023-01-22T05:28:27.415Z,18.37
2023-01-22T05:31:08.209Z,18.37
2023-01-22T05:33:44.319Z,18.37
2023-01-22T05:36:13.575Z,18.36
2023-01-22T05:38:40.945Z,18.37
2023-01-22T05:41:09.180Z,18.36
2023-01-22T05:43:39.120Z,18.36
2023-01-22T05:46:09.398Z,18.34
2023-01-22T05:48:51.172Z,18.33
2023-01-22T05:51:25.177Z,18.32
2023-01-22T05:53:53.335Z,18.32
2023-01-22T05:56:20.879Z,18.32
2023-01-22T05:58:48.351Z,18.31
2023-01-22T06:01:16.029Z,18.31
2023-01-22T06:03:47.874Z,18.31
2023-01-22T06:06:19.399Z,18.30
2023-01-22T06:08:48.285Z,18.31
2023-01-22T06:11:17.117Z,18.32
2023-01-22T06:13:47.711Z,18.31
2023-01-22T06:16:17.802Z,18.31
2023-01-22T06:19:03.435Z,18.29
2023-01-22T06:21:37.961Z,18.30
2023-01-22T06:24:05.877Z,18.29
2023-01-22T06:26:33.635Z,18.27
2023-01-22T06:29:01.853Z,18.28
2023-01-22T06:31:30.980Z,18.27
2023-01-22T06:33:58.367Z,18.26
2023-01-22T06:36:26.125Z,18.26
2023-01-22T06:38:54.353Z,18.25
2023-01-22T06:41:35.514Z,18.25
2023-01-22T06:44:05.230Z,18.25
2023-01-22T06:46:32.865Z,18.25
2023-01-22T06:49:04.929Z,18.25
2023-01-22T06:51:32.382Z,18.24
2023-01-22T06:53:59.722Z,18.24
2023-01-22T06:56:28.270Z,18.23
2023-01-22T06:58:57.465Z,18.22
2023-01-22T07:01:25.992Z,18.23
2023-01-22T07:03:53.376Z,18.23
2023-01-22T07:06:20.675Z,18.23
2023-01-22T07:08:47.980Z,18.24
2023-01-22T07:11:16.323Z,18.26
2023-01-22T07:13:43.603Z,18.25
2023-01-22T07:16:11.418Z,18.26
2023-01-22T07:18:38.715Z,18.25
2023-01-22T07:21:06.350Z,18.27
2023-01-22T07:23:33.762Z,18.28
2023-01-22T07:26:01.120Z,18.28
2023-01-22T07:28:28.420Z,18.27
2023-01-22T07:30:57.105Z,18.27
2023-01-22T07:33:24.497Z,18.26
2023-01-22T07:35:58.813Z,18.25
2023-01-22T07:38:29.155Z,18.25
2023-01-22T07:41:14.122Z,18.25
2023-01-22T07:43:53.270Z,18.25
2023-01-22T07:46:20.640Z,18.25
2023-01-22T07:48:47.986Z,18.24
2023-01-22T07:51:15.331Z,18.22
2023-01-22T07:53:42.866Z,18.20
2023-01-22T07:56:10.321Z,18.19
2023-01-22T07:58:37.601Z,18.18
2023-01-22T08:01:08.360Z,18.15
2023-01-22T08:03:37.807Z,18.15
2023-01-22T08:06:15.290Z,18.16
2023-01-22T08:08:42.746Z,18.16
2023-01-22T08:11:10.017Z,18.15
2023-01-22T08:13:37.241Z,18.14
2023-01-22T08:16:04.935Z,18.14
2023-01-22T08:18:32.532Z,18.14
2023-01-22T08:21:01.233Z,18.14
2023-01-22T08:23:28.805Z,18.14
2023-01-22T08:26:00.938Z,18.13
2023-01-22T08:28:28.123Z,18.13
2023-01-22T08:31:00.349Z,18.14
2023-01-22T08:33:29.245Z,18.15
2023-01-22T08:35:56.614Z,18.15
2023-01-22T08:38:24.092Z,18.14
2023-01-22T08:40:52.781Z,18.14
2023-01-22T08:43:20.385Z,18.14
2023-01-22T08:45:49.651Z,18.14
2023-01-22T08:48:17.816Z,18.14
2023-01-22T08:50:45.427Z,18.15
2023-01-22T08:53:12.723Z,18.14
2023-01-22T08:55:40.137Z,18.13
2023-01-22T08:58:07.924Z,18.12
2023-01-22T09:00:35.345Z,18.13
2023-01-22T09:03:02.568Z,18.14
2023-01-22T09:05:29.829Z,18.12
2023-01-22T09:08:00.129Z,18.13
2023-01-22T09:10:27.481Z,18.13
2023-01-22T09:12:54.781Z,18.14
2023-01-22T09:15:22.157Z,18.15
2023-01-22T09:17:49.489Z,18.15
2023-01-22T09:20:17.363Z,18.16
2023-01-22T09:22:45.686Z,18.15
2023-01-22T09:25:13.244Z,18.16
2023-01-22T09:27:40.638Z,18.17
2023-01-22T09:30:09.753Z,18.18
2023-01-22T09:32:37.517Z,18.19
2023-01-22T09:35:08.438Z,18.21
2023-01-22T09:37:35.714Z,18.18
2023-01-22T09:40:03.049Z,18.17
2023-01-22T09:42:35.210Z,18.17
2023-01-22T09:45:09.784Z,18.17
2023-01-22T09:47:52.375Z,18.18
2023-01-22T09:50:33.261Z,18.19
2023-01-22T09:53:05.247Z,18.19
2023-01-22T09:55:40.826Z,18.18
2023-01-22T09:58:15.016Z,18.16
2023-01-22T10:00:48.087Z,18.18
2023-01-22T10:03:27.096Z,18.17
2023-01-22T10:06:01.919Z,18.19
2023-01-22T10:08:34.187Z,18.20
2023-01-22T10:11:03.694Z,18.20
2023-01-22T10:13:36.959Z,18.20
2023-01-22T10:16:05.716Z,18.20
2023-01-22T10:18:56.897Z,18.19
2023-01-22T10:21:33.468Z,18.19
2023-01-22T10:24:01.018Z,18.19
2023-01-22T10:26:48.821Z,18.17
2023-01-22T10:29:22.697Z,18.18
2023-01-22T10:31:56.695Z,18.18
2023-01-22T10:34:36.297Z,18.19
2023-01-22T10:37:14.653Z,18.19
2023-01-22T10:39:56.085Z,18.20
2023-01-22T10:42:26.049Z,18.21
2023-01-22T10:45:09.108Z,18.21
2023-01-22T10:47:36.413Z,18.23
2023-01-22T10:50:13.114Z,18.23
2023-01-22T10:52:55.017Z,18.24
2023-01-22T10:55:25.719Z,18.24
2023-01-22T10:57:59.047Z,18.26
2023-01-22T11:00:39.768Z,18.27
2023-01-22T11:03:21.408Z,18.45
2023-01-22T11:05:54.566Z,18.52
2023-01-22T11:08:23.727Z,18.53
2023-01-22T11:10:56.258Z,18.51
2023-01-22T11:13:43.050Z,18.50
2023-01-22T11:16:25.179Z,18.48
2023-01-22T11:18:59.725Z,18.47
2023-01-22T11:21:27.246Z,18.45
2023-01-22T11:24:14.303Z,18.43
2023-01-22T11:26:50.660Z,18.44
2023-01-22T11:29:45.994Z,18.42
2023-01-22T11:32:37.341Z,18.42
2023-01-22T11:35:13.717Z,18.40
2023-01-22T11:37:47.021Z,18.37
2023-01-22T11:40:26.244Z,18.36
2023-01-22T11:43:34.818Z,18.35
2023-01-22T11:46:46.517Z,18.34
2023-01-22T11:49:32.828Z,18.33
2023-01-22T11:52:31.469Z,18.26
2023-01-22T11:55:21.627Z,18.25
2023-01-22T11:58:07.461Z,18.26
2023-01-22T12:00:40.456Z,18.27
2023-01-22T12:03:49.736Z,18.27
2023-01-22T12:06:28.895Z,18.29
2023-01-22T12:08:59.402Z,18.29
2023-01-22T12:12:01.582Z,18.31
2023-01-22T12:14:34.270Z,18.29
2023-01-22T12:17:42.839Z,18.31
2023-01-22T12:20:35.245Z,18.29
2023-01-22T12:23:02.417Z,18.31
2023-01-22T12:25:41.713Z,18.30
2023-01-22T12:28:12.609Z,18.31
2023-01-22T12:31:11.144Z,18.23
2023-01-22T12:33:41.883Z,18.19
2023-01-22T12:36:13.377Z,18.20
2023-01-22T12:39:09.133Z,18.21
2023-01-22T12:41:45.639Z,18.23
2023-01-22T12:44:48.095Z,18.23
2023-01-22T12:47:25.757Z,18.24
2023-01-22T12:49:53.469Z,18.24
2023-01-22T12:52:57.704Z,18.25
2023-01-22T12:55:38.337Z,18.26
2023-01-22T12:58:21.436Z,18.26
2023-01-22T13:01:11.499Z,18.26
2023-01-22T13:03:40.888Z,18.27
2023-01-22T13:06:47.795Z,18.27
2023-01-22T13:09:27.367Z,18.27
2023-01-22T13:11:54.748Z,18.28
2023-01-22T13:14:21.986Z,18.28
2023-01-22T13:16:59.467Z,18.28
2023-01-22T13:19:30.907Z,18.29
2023-01-22T13:22:00.718Z,18.29
2023-01-22T13:24:29.023Z,18.27
2023-01-22T13:27:02.318Z,18.28
2023-01-22T13:29:33.258Z,18.29
2023-01-22T13:32:03.266Z,18.31
2023-01-22T13:34:31.442Z,18.31
2023-01-22T13:36:58.932Z,18.31
2023-01-22T13:39:32.031Z,18.32
2023-01-22T13:42:05.078Z,18.32
2023-01-22T13:44:36.568Z,18.33
2023-01-22T13:47:04.716Z,18.34
2023-01-22T13:49:41.604Z,18.34
2023-01-22T13:52:15.398Z,18.34
2023-01-22T13:55:11.707Z,18.35
2023-01-22T13:57:48.562Z,18.35
2023-01-22T14:00:52.223Z,18.36
2023-01-22T14:03:24.394Z,18.36
2023-01-22T14:06:02.904Z,18.37
2023-01-22T14:08:30.341Z,18.35
2023-01-22T14:10:59.328Z,18.36
2023-01-22T14:13:26.850Z,18.36
2023-01-22T14:16:01.619Z,18.35
2023-01-22T14:18:29.704Z,18.37
2023-01-22T14:20:57.162Z,18.37
2023-01-22T14:23:26.697Z,18.37
2023-01-22T14:25:55.928Z,18.37
2023-01-22T14:28:24.865Z,18.38
2023-01-22T14:30:52.506Z,18.37
2023-01-22T14:33:24.297Z,18.38
2023-01-22T14:35:52.879Z,18.38
2023-01-22T14:38:21.369Z,18.38
2023-01-22T14:40:49.680Z,18.37
2023-01-22T14:43:17.123Z,18.38
2023-01-22T14:45:46.186Z,18.37
2023-01-22T14:48:19.104Z,18.36
2023-01-22T14:50:47.262Z,18.36
2023-01-22T14:53:15.932Z,18.36
2023-01-22T14:55:43.873Z,18.36
2023-01-22T14:58:11.775Z,18.36
2023-01-22T15:00:41.839Z,18.36
2023-01-22T15:03:09.198Z,18.37
2023-01-22T15:05:36.475Z,18.36
2023-01-22T15:08:03.895Z,18.36
2023-01-22T15:10:31.609Z,18.36
2023-01-22T15:12:58.856Z,18.36
2023-01-22T15:15:28.412Z,18.36
2023-01-22T15:17:57.364Z,18.35
2023-01-22T15:20:26.262Z,18.35
2023-01-22T15:22:53.617Z,18.34
2023-01-22T15:25:20.931Z,18.34
2023-01-22T15:27:48.309Z,18.34
2023-01-22T15:30:15.923Z,18.34
2023-01-22T15:32:43.198Z,18.34
2023-01-22T15:35:10.625Z,18.33
2023-01-22T15:37:37.906Z,18.33
2023-01-22T15:40:05.788Z,18.33
2023-01-22T15:42:35.678Z,18.32
2023-01-22T15:45:05.167Z,18.31
2023-01-22T15:47:32.969Z,18.31
2023-01-22T15:50:00.254Z,18.31
2023-01-22T15:52:27.578Z,18.31
2023-01-22T15:54:55.144Z,18.30
2023-01-22T15:57:22.458Z,18.29
2023-01-22T15:59:52.704Z,18.31
2023-01-22T16:02:20.170Z,18.31
2023-01-22T16:04:47.588Z,18.29
2023-01-22T16:07:14.915Z,18.31
2023-01-22T16:09:42.254Z,18.31
2023-01-22T16:12:09.578Z,18.30
2023-01-22T16:14:36.811Z,18.29
2023-01-22T16:17:04.171Z,18.30
2023-01-22T16:19:31.445Z,18.31
2023-01-22T16:21:58.739Z,18.31
2023-01-22T16:24:26.751Z,18.29
2023-01-22T16:26:54.098Z,18.31
2023-01-22T16:29:21.397Z,18.30
2023-01-22T16:31:48.776Z,18.30
2023-01-22T16:34:17.978Z,18.30
2023-01-22T16:36:45.638Z,18.31
2023-01-22T16:39:21.696Z,18.31
2023-01-22T16:41:51.443Z,18.31
2023-01-22T16:44:24.602Z,18.29
2023-01-22T16:46:55.339Z,18.29
2023-01-22T16:49:25.214Z,18.31
2023-01-22T16:51:55.288Z,18.32
2023-01-22T16:54:24.523Z,18.32
2023-01-22T16:56:52.342Z,18.34
2023-01-22T16:59:19.879Z,18.36
2023-01-22T17:01:47.356Z,18.35
2023-01-22T17:04:15.234Z,18.37
2023-01-22T17:06:45.708Z,18.36
2023-01-22T17:09:24.690Z,18.36
2023-01-22T17:11:54.593Z,18.37
2023-01-22T17:14:24.885Z,18.36
2023-01-22T17:16:52.929Z,18.36
2023-01-22T17:19:20.547Z,18.37
2023-01-22T17:21:51.904Z,18.36
2023-01-22T17:24:19.333Z,18.36
2023-01-22T17:26:48.120Z,18.36
2023-01-22T17:29:15.552Z,18.36
2023-01-22T17:31:43.057Z,18.37
2023-01-22T17:34:11.628Z,18.37
2023-01-22T17:36:43.019Z,18.37
2023-01-22T17:39:17.062Z,18.38
2023-01-22T17:41:44.874Z,18.39
2023-01-22T17:44:13.206Z,18.40
2023-01-22T17:46:41.008Z,18.40
2023-01-22T17:49:09.156Z,18.40
2023-01-22T17:51:36.713Z,18.43
2023-01-22T17:54:06.051Z,18.44
2023-01-22T17:56:40.244Z,18.46
2023-01-22T17:59:07.743Z,18.46
2023-01-22T18:01:36.801Z,18.46
2023-01-22T18:04:07.689Z,18.45
2023-01-22T18:06:36.830Z,18.48
2023-01-22T18:09:05.652Z,18.49
2023-01-22T18:11:34.304Z,18.50
2023-01-22T18:14:10.572Z,18.51
2023-01-22T18:16:39.301Z,18.52
2023-01-22T18:19:07.483Z,18.51
2023-01-22T18:21:36.687Z,18.51
2023-01-22T18:24:05.841Z,18.53
2023-01-22T18:26:34.251Z,18.54
2023-01-22T18:29:02.632Z,18.55
2023-01-22T18:31:30.752Z,18.54
2023-01-22T18:34:02.059Z,18.57
2023-01-22T18:36:32.666Z,18.59
2023-01-22T18:39:06.995Z,18.59
2023-01-22T18:41:36.288Z,18.61
2023-01-22T18:44:03.955Z,18.62
2023-01-22T18:46:33.746Z,18.62
2023-01-22T18:49:04.111Z,18.63
2023-01-22T18:51:33.060Z,18.62
2023-01-22T18:54:03.108Z,18.64
2023-01-22T18:56:30.617Z,18.65
2023-01-22T18:58:58.557Z,18.65
2023-01-22T19:01:34.611Z,18.63
2023-01-22T19:04:08.256Z,18.63
2023-01-22T19:06:38.280Z,18.63
2023-01-22T19:09:09.679Z,18.62
2023-01-22T19:11:38.955Z,18.62
2023-01-22T19:14:09.175Z,18.63
2023-01-22T19:16:38.216Z,18.63
2023-01-22T19:19:13.163Z,18.63
2023-01-22T19:21:46.859Z,18.64
2023-01-22T19:24:17.499Z,18.65
2023-01-22T19:26:46.553Z,18.66
2023-01-22T19:29:20.985Z,18.66
2023-01-22T19:31:52.633Z,18.67
2023-01-22T19:34:25.399Z,18.68
2023-01-22T19:36:55.793Z,18.69
2023-01-22T19:39:27.958Z,18.69
2023-01-22T19:41:56.701Z,18.70
2023-01-22T19:44:24.265Z,18.71
2023-01-22T19:46:51.735Z,18.72
2023-01-22T19:49:19.228Z,18.73
2023-01-22T19:51:46.921Z,18.73
2023-01-22T19:54:14.404Z,18.72
2023-01-22T19:56:45.558Z,18.74
2023-01-22T19:59:18.260Z,18.75
2023-01-22T20:01:47.362Z,18.75
2023-01-22T20:04:25.093Z,18.74
2023-01-22T20:07:05.080Z,18.75
2023-01-22T20:09:34.117Z,18.76
2023-01-22T20:12:01.545Z,18.77
2023-01-22T20:14:31.218Z,18.77
2023-01-22T20:17:00.354Z,18.77
2023-01-22T20:19:28.884Z,18.78
2023-01-22T20:21:56.645Z,18.79
2023-01-22T20:24:23.949Z,18.80
2023-01-22T20:26:54.640Z,18.81
2023-01-22T20:29:22.206Z,18.81
2023-01-22T20:31:53.055Z,18.81
2023-01-22T20:34:20.853Z,18.81
2023-01-22T20:36:48.389Z,18.82
2023-01-22T20:39:16.381Z,18.83
2023-01-22T20:41:45.656Z,18.82
2023-01-22T20:44:13.896Z,18.83
2023-01-22T20:46:43.762Z,18.83
2023-01-22T20:49:12.325Z,18.83
2023-01-22T20:51:40.085Z,18.85
2023-01-22T20:54:07.464Z,18.85
2023-01-22T20:56:35.621Z,18.85
2023-01-22T20:59:12.126Z,18.85
2023-01-22T21:01:39.904Z,18.87
2023-01-22T21:04:07.787Z,18.87
2023-01-22T21:06:36.503Z,18.87
2023-01-22T21:09:04.389Z,18.88
2023-01-22T21:11:32.788Z,18.89
2023-01-22T21:14:01.416Z,18.91
2023-01-22T21:16:33.301Z,18.90
2023-01-22T21:19:04.290Z,18.91
2023-01-22T21:21:32.942Z,18.91
2023-01-22T21:24:00.946Z,18.91
2023-01-22T21:26:30.495Z,18.92
2023-01-22T21:29:00.391Z,18.91
2023-01-22T21:31:28.758Z,18.91
2023-01-22T21:34:03.490Z,18.91
2023-01-22T21:36:36.722Z,18.91
2023-01-22T21:39:06.641Z,18.92
2023-01-22T21:41:33.980Z,18.92
2023-01-22T21:44:20.531Z,18.93
2023-01-22T21:46:48.177Z,18.94
2023-01-22T21:49:18.285Z,18.93
2023-01-22T21:51:51.334Z,18.95
2023-01-22T21:54:25.884Z,18.95
2023-01-22T21:56:53.636Z,18.95
2023-01-22T21:59:21.181Z,18.95
2023-01-22T22:01:50.375Z,18.95
2023-01-22T22:04:18.860Z,18.95
2023-01-22T22:06:46.802Z,18.94
2023-01-22T22:09:17.802Z,18.96
2023-01-22T22:11:45.825Z,18.98
2023-01-22T22:14:17.219Z,18.98
2023-01-22T22:16:45.259Z,18.98
2023-01-22T22:19:13.563Z,19.00
2023-01-22T22:21:41.595Z,19.00
2023-01-22T22:24:09.235Z,19.01
2023-01-22T22:26:37.213Z,19.02
2023-01-22T22:29:05.795Z,19.02
2023-01-22T22:31:33.574Z,19.03
2023-01-22T22:34:01.066Z,19.03
2023-01-22T22:36:29.720Z,19.04
2023-01-22T22:38:57.121Z,19.05
2023-01-22T22:41:27.797Z,19.04
2023-01-22T22:43:55.917Z,19.05
2023-01-22T22:46:26.644Z,19.06
2023-01-22T22:48:55.932Z,19.05
2023-01-22T22:51:35.378Z,19.08
2023-01-22T22:54:12.076Z,19.07
2023-01-22T22:56:39.320Z,19.08
2023-01-22T22:59:06.954Z,19.07
2023-01-22T23:01:37.643Z,19.09
2023-01-22T23:04:06.474Z,19.09
2023-01-22T23:06:35.560Z,19.12
2023-01-22T23:09:11.498Z,19.11
2023-01-22T23:11:39.522Z,19.12
2023-01-22T23:14:07.259Z,19.12
2023-01-22T23:16:40.524Z,19.11
2023-01-22T23:19:14.642Z,19.11
2023-01-22T23:21:42.373Z,19.12
2023-01-22T23:24:12.116Z,19.12
2023-01-22T23:26:40.384Z,19.12
2023-01-22T23:29:10.266Z,19.12
2023-01-22T23:31:39.310Z,19.12
2023-01-22T23:34:11.622Z,19.14
2023-01-22T23:36:40.935Z,19.12
2023-01-22T23:39:08.102Z,19.12
2023-01-22T23:41:35.437Z,19.12
2023-01-22T23:44:04.045Z,19.12
2023-01-22T23:46:32.113Z,19.11
2023-01-22T23:48:59.500Z,19.10
2023-01-22T23:51:27.325Z,19.10
2023-01-22T23:53:54.772Z,19.09
2023-01-22T23:56:27.343Z,19.09
2023-01-22T23:58:56.208Z,19.09
